Time;durP1;ratioP1;P1;durP2;ratioP2;P2;SDS_P1;SDS_P2;PMS_P1;PMS_P2;Temp;Humidity;BMP_temperature;BMP_pressure;BME280_temperature;BME280_humidity;BME280_pressure;Samples;Min_cycle;Max_cycle;Signal;HPM_P1;HPM_P2
2023/05/30 00:01:38;;;;;;;10.50;7.50;;;;;;;;;;5114872;28;20046;-69
2023/05/30 00:04:03;;;;;;;9.32;7.30;;;;;;;;;;5114595;28;20036;-68
2023/05/30 00:06:29;;;;;;;9.00;7.15;;;;;;;;;;5114489;28;20030;-68
2023/05/30 00:08:54;;;;;;;10.25;7.07;;;;;;;;;;5114344;28;20027;-70
2023/05/30 00:11:19;;;;;;;10.43;7.50;;;;;;;;;;5114233;28;20063;-68
2023/05/30 00:13:45;;;;;;;10.48;7.47;;;;;;;;;;5114809;28;20077;-67
2023/05/30 00:16:10;;;;;;;10.15;7.28;;;;;;;;;;5096509;28;20467;-68
2023/05/30 00:18:36;;;;;;;8.85;7.32;;;;;;;;;;5114342;28;20352;-67
2023/05/30 00:21:06;;;;;;;7.85;6.80;;;;;;;;;;5114813;28;20035;-67
2023/05/30 00:23:33;;;;;;;9.80;6.70;;;;;;;;;;5114395;28;20463;-67
2023/05/30 00:25:59;;;;;;;9.90;7.03;;;;;;;;;;5114088;28;20027;-67
2023/05/30 00:28:25;;;;;;;9.13;6.38;;;;;;;;;;5079474;28;20031;-68
2023/05/30 00:30:52;;;;;;;9.85;6.70;;;;;;;;;;5114632;28;20019;-67
2023/05/30 00:33:17;;;;;;;9.18;6.60;;;;;;;;;;5114440;28;20107;-67
2023/05/30 00:35:42;;;;;;;9.30;7.00;;;;;;;;;;5079629;28;20447;-65
2023/05/30 00:38:08;;;;;;;11.38;7.55;;;;;;;;;;5096093;28;20024;-65
2023/05/30 00:40:33;;;;;;;8.93;6.90;;;;;;;;;;5114003;28;20106;-66
2023/05/30 00:42:58;;;;;;;10.55;7.05;;;;;;;;;;5096270;28;20032;-66
2023/05/30 00:45:24;;;;;;;8.30;7.07;;;;;;;;;;5096323;28;20432;-66
2023/05/30 00:47:51;;;;;;;9.10;7.38;;;;;;;;;;5096074;28;20493;-67
2023/05/30 00:50:18;;;;;;;12.75;7.78;;;;;;;;;;5095767;28;20027;-67
2023/05/30 00:52:44;;;;;;;11.13;6.82;;;;;;;;;;5095813;28;20055;-67
2023/05/30 00:55:10;;;;;;;10.43;6.60;;;;;;;;;;5114119;28;20027;-67
2023/05/30 00:57:36;;;;;;;9.88;7.15;;;;;;;;;;5078926;28;20027;-67
2023/05/30 01:00:02;;;;;;;8.13;7.07;;;;;;;;;;5095967;28;20019;-67
2023/05/30 01:02:33;;;;;;;9.30;7.53;;;;;;;;;;5095701;28;20028;-67
2023/05/30 01:04:59;;;;;;;9.43;6.82;;;;;;;;;;5096134;28;20429;-66
2023/05/30 01:07:24;;;;;;;9.30;7.40;;;;;;;;;;5114285;28;20035;-66
2023/05/30 01:09:52;;;;;;;8.55;6.88;;;;;;;;;;5095956;28;20467;-69
2023/05/30 01:12:33;;;;;;;8.85;6.82;;;;;;;;;;5095673;28;20491;-71
2023/05/30 01:15:03;;;;;;;9.57;6.93;;;;;;;;;;5080003;22;20084;-71
2023/05/30 01:17:33;;;;;;;8.20;6.90;;;;;;;;;;5079783;23;20143;-66
2023/05/30 01:20:09;;;;;;;8.40;6.78;;;;;;;;;;5075394;28;20360;-68
2023/05/30 01:22:53;;;;;;;12.38;7.60;;;;;;;;;;5093365;28;20369;-68
2023/05/30 01:25:23;;;;;;;11.02;8.00;;;;;;;;;;5074989;28;20032;-68
2023/05/30 01:28:03;;;;;;;9.63;7.57;;;;;;;;;;5075161;28;20468;-68
2023/05/30 01:30:29;;;;;;;11.23;8.02;;;;;;;;;;5074781;28;20213;-66
2023/05/30 01:32:55;;;;;;;12.43;8.52;;;;;;;;;;5093047;28;20024;-66
2023/05/30 01:35:22;;;;;;;9.77;8.50;;;;;;;;;;5075180;28;20025;-68
2023/05/30 01:37:47;;;;;;;13.82;8.95;;;;;;;;;;5093530;28;20038;-67
2023/05/30 01:40:14;;;;;;;12.25;8.40;;;;;;;;;;5093402;28;20019;-66
2023/05/30 01:42:40;;;;;;;12.73;8.52;;;;;;;;;;5075167;28;20024;-66
2023/05/30 01:45:14;;;;;;;10.05;8.88;;;;;;;;;;5075228;28;20028;-69
2023/05/30 01:47:43;;;;;;;11.80;8.27;;;;;;;;;;5075124;28;20107;-69
2023/05/30 01:50:21;;;;;;;12.50;8.95;;;;;;;;;;5058588;28;20028;-70
2023/05/30 01:52:50;;;;;;;12.60;8.63;;;;;;;;;;5074953;28;20368;-70
2023/05/30 01:55:17;;;;;;;12.52;9.07;;;;;;;;;;5075026;28;20051;-70
2023/05/30 01:57:47;;;;;;;11.57;8.63;;;;;;;;;;5074678;28;20032;-68
2023/05/30 02:00:16;;;;;;;11.23;8.15;;;;;;;;;;5074752;28;20025;-69
2023/05/30 02:02:43;;;;;;;;;;;;;;;;;;5078561;28;20085;-69
2023/05/30 02:05:08;;;;;;;15.88;8.60;;;;;;;;;;5078304;28;19908;-70
2023/05/30 02:07:38;;;;;;;15.77;9.45;;;;;;;;;;5078538;28;20035;-69
2023/05/30 02:10:03;;;;;;;10.57;7.97;;;;;;;;;;5096681;28;20063;-68
2023/05/30 02:12:29;;;;;;;14.18;9.05;;;;;;;;;;5078210;28;20443;-63
2023/05/30 02:14:56;;;;;;;15.50;9.18;;;;;;;;;;5096197;28;20048;-62
2023/05/30 02:17:21;;;;;;;14.40;9.32;;;;;;;;;;5077780;28;20048;-64
2023/05/30 02:19:47;;;;;;;14.02;9.57;;;;;;;;;;5078311;28;20471;-64
2023/05/30 02:22:17;;;;;;;17.92;9.05;;;;;;;;;;5078112;28;20038;-64
2023/05/30 02:24:43;;;;;;;12.48;9.23;;;;;;;;;;5078250;28;20122;-64
2023/05/30 02:27:08;;;;;;;13.30;9.20;;;;;;;;;;5096023;28;20127;-64
2023/05/30 02:29:34;;;;;;;12.57;9.15;;;;;;;;;;5095967;28;20032;-64
2023/05/30 02:31:59;;;;;;;13.85;9.02;;;;;;;;;;5077672;28;20067;-64
2023/05/30 02:34:25;;;;;;;13.93;8.93;;;;;;;;;;5095921;28;20016;-64
2023/05/30 02:36:50;;;;;;;12.68;9.23;;;;;;;;;;5077691;28;20046;-65
2023/05/30 02:39:17;;;;;;;14.55;8.88;;;;;;;;;;5095841;28;20036;-65
2023/05/30 02:41:42;;;;;;;13.57;9.70;;;;;;;;;;5077687;28;20538;-65
2023/05/30 02:44:07;;;;;;;12.32;8.88;;;;;;;;;;5095825;28;20134;-64
2023/05/30 02:46:33;;;;;;;14.15;9.02;;;;;;;;;;5077736;28;20415;-65
2023/05/30 02:48:59;;;;;;;13.10;8.75;;;;;;;;;;5077647;28;20045;-65
2023/05/30 02:51:25;;;;;;;10.80;9.13;;;;;;;;;;5077240;28;20034;-63
2023/05/30 02:53:50;;;;;;;14.00;8.90;;;;;;;;;;5077375;28;20122;-66
2023/05/30 02:56:24;;;;;;;13.85;9.00;;;;;;;;;;5077553;28;20410;-66
2023/05/30 02:59:08;;;;;;;14.20;9.52;;;;;;;;;;5077507;28;20024;-66
2023/05/30 03:01:52;;;;;;;10.90;9.18;;;;;;;;;;5077407;28;20028;-66
2023/05/30 03:04:17;;;;;;;13.88;9.35;;;;;;;;;;5060755;28;20032;-67
2023/05/30 03:06:44;;;;;;;17.90;9.02;;;;;;;;;;5077221;28;20028;-67
2023/05/30 03:09:26;;;;;;;11.95;9.35;;;;;;;;;;5063336;28;20530;-66
2023/05/30 03:11:52;;;;;;;12.65;8.52;;;;;;;;;;5060563;28;20147;-68
2023/05/30 03:14:18;;;;;;;11.05;8.40;;;;;;;;;;5076048;28;20051;-66
2023/05/30 03:16:43;;;;;;;12.82;8.88;;;;;;;;;;5076541;28;20047;-66
2023/05/30 03:19:10;;;;;;;12.80;8.35;;;;;;;;;;5076789;28;20036;-66
2023/05/30 03:21:37;;;;;;;13.80;8.25;;;;;;;;;;5073813;28;20024;-65
2023/05/30 03:24:03;;;;;;;9.70;7.70;;;;;;;;;;5076940;28;20035;-66
2023/05/30 03:26:33;;;;;;;11.60;8.07;;;;;;;;;;5077207;28;20090;-64
2023/05/30 03:28:58;;;;;;;9.57;7.70;;;;;;;;;;5060015;28;20028;-67
2023/05/30 03:31:27;;;;;;;12.38;7.35;;;;;;;;;;5076649;28;20383;-69
2023/05/30 03:33:53;;;;;;;10.30;7.70;;;;;;;;;;5094835;28;20038;-68
2023/05/30 03:36:18;;;;;;;9.82;6.72;;;;;;;;;;5076704;28;20103;-64
2023/05/30 03:38:44;;;;;;;10.93;7.53;;;;;;;;;;5076582;28;20024;-65
2023/05/30 03:41:10;;;;;;;10.73;6.97;;;;;;;;;;5076613;28;20070;-66
2023/05/30 03:43:35;;;;;;;12.60;7.85;;;;;;;;;;5076776;28;20027;-66
2023/05/30 03:46:01;;;;;;;9.98;7.47;;;;;;;;;;5076392;28;20043;-65
2023/05/30 03:48:26;;;;;;;9.88;7.43;;;;;;;;;;5076989;28;20016;-65
2023/05/30 03:50:53;;;;;;;11.80;8.00;;;;;;;;;;5094782;28;20067;-66
2023/05/30 03:53:18;;;;;;;13.32;7.63;;;;;;;;;;5094721;28;20381;-66
2023/05/30 03:55:44;;;;;;;11.38;6.70;;;;;;;;;;5094792;28;20356;-68
2023/05/30 03:58:10;;;;;;;11.93;7.78;;;;;;;;;;5076727;28;20024;-68
2023/05/30 04:00:35;;;;;;;14.13;8.70;;;;;;;;;;5076329;28;20525;-66
2023/05/30 04:03:19;;;;;;;13.32;8.73;;;;;;;;;;5094464;28;20101;-67
2023/05/30 04:05:47;;;;;;;17.38;9.63;;;;;;;;;;5074637;28;20050;-66
2023/05/30 04:08:14;;;;;;;16.25;8.88;;;;;;;;;;5075947;28;20042;-66
2023/05/30 04:10:40;;;;;;;16.45;8.88;;;;;;;;;;5076016;28;20119;-65
2023/05/30 04:13:06;;;;;;;11.93;8.85;;;;;;;;;;5075606;28;20111;-65
2023/05/30 04:15:33;;;;;;;15.52;9.02;;;;;;;;;;5074615;28;20048;-63
2023/05/30 04:18:01;;;;;;;17.30;9.40;;;;;;;;;;5093655;28;20079;-63
2023/05/30 04:20:26;;;;;;;17.75;9.05;;;;;;;;;;5093889;28;20052;-63
2023/05/30 04:22:52;;;;;;;15.35;8.82;;;;;;;;;;5075853;28;20468;-68
2023/05/30 04:25:18;;;;;;;15.15;8.77;;;;;;;;;;5074985;28;20020;-67
2023/05/30 04:27:43;;;;;;;16.85;8.65;;;;;;;;;;5075987;28;20031;-67
2023/05/30 04:30:09;;;;;;;15.10;9.05;;;;;;;;;;5076108;28;20039;-68
2023/05/30 04:32:35;;;;;;;14.07;8.73;;;;;;;;;;5076281;28;20060;-68
2023/05/30 04:35:04;;;;;;;14.43;8.70;;;;;;;;;;5076515;28;20510;-64
2023/05/30 04:37:29;;;;;;;26.92;10.68;;;;;;;;;;5075918;28;20494;-64
2023/05/30 04:39:57;;;;;;;15.82;9.23;;;;;;;;;;5075875;28;20032;-71
2023/05/30 04:42:26;;;;;;;13.00;8.38;;;;;;;;;;5075816;28;20028;-71
2023/05/30 04:44:53;;;;;;;11.07;7.93;;;;;;;;;;5075563;28;20064;-71
2023/05/30 04:47:21;;;;;;;12.38;7.38;;;;;;;;;;5094061;28;20012;-71
2023/05/30 04:49:46;;;;;;;10.95;7.53;;;;;;;;;;5075078;28;20060;-71
2023/05/30 04:52:12;;;;;;;8.40;6.20;;;;;;;;;;5092971;28;20470;-71
2023/05/30 04:54:37;;;;;;;6.70;5.28;;;;;;;;;;5057852;28;20116;-64
2023/05/30 04:57:04;;;;;;;9.85;5.93;;;;;;;;;;5074536;28;20484;-63
2023/05/30 04:59:30;;;;;;;6.22;4.90;;;;;;;;;;5092470;28;20138;-63
2023/05/30 05:01:56;;;;;;;6.93;4.88;;;;;;;;;;5092942;28;20036;-62
2023/05/30 05:04:21;;;;;;;6.03;5.10;;;;;;;;;;5074563;28;20372;-61
2023/05/30 05:06:46;;;;;;;11.02;4.90;;;;;;;;;;5093031;28;20020;-62
2023/05/30 05:09:13;;;;;;;7.13;4.50;;;;;;;;;;5086937;28;20039;-62
2023/05/30 05:11:38;;;;;;;6.13;4.70;;;;;;;;;;5090309;28;20083;-63
2023/05/30 05:14:04;;;;;;;7.90;5.22;;;;;;;;;;5089735;28;20048;-63
2023/05/30 05:16:32;;;;;;;5.45;4.20;;;;;;;;;;5072549;28;20044;-63
2023/05/30 05:18:58;;;;;;;4.60;4.13;;;;;;;;;;5075365;28;20028;-63
2023/05/30 05:21:25;;;;;;;5.13;4.13;;;;;;;;;;5075065;28;20072;-63
2023/05/30 05:23:50;;;;;;;4.68;3.90;;;;;;;;;;5064356;28;20025;-63
2023/05/30 05:26:15;;;;;;;4.97;3.58;;;;;;;;;;5072393;28;20142;-63
2023/05/30 05:28:41;;;;;;;4.55;3.60;;;;;;;;;;5072324;28;20461;-63
2023/05/30 05:31:06;;;;;;;4.07;3.67;;;;;;;;;;5053885;28;20039;-63
2023/05/30 05:33:31;;;;;;;7.13;3.97;;;;;;;;;;5053490;28;20028;-63
2023/05/30 05:35:57;;;;;;;5.20;3.40;;;;;;;;;;5072297;28;20480;-62
2023/05/30 05:38:23;;;;;;;5.93;3.63;;;;;;;;;;5076579;28;20020;-64
2023/05/30 05:40:49;;;;;;;7.13;4.00;;;;;;;;;;5058315;28;20059;-64
2023/05/30 05:43:14;;;;;;;7.65;3.63;;;;;;;;;;5075266;28;20032;-68
2023/05/30 05:45:40;;;;;;;4.53;3.75;;;;;;;;;;5074145;28;20430;-68
2023/05/30 05:48:06;;;;;;;4.93;3.58;;;;;;;;;;5056259;28;20033;-64
2023/05/30 05:50:31;;;;;;;3.53;3.22;;;;;;;;;;5041192;28;20029;-63
2023/05/30 05:53:05;;;;;;;4.63;3.67;;;;;;;;;;5076306;28;20028;-63
2023/05/30 05:55:31;;;;;;;5.93;3.90;;;;;;;;;;5058429;28;20466;-63
2023/05/30 05:57:56;;;;;;;4.18;3.75;;;;;;;;;;5076084;28;20036;-63
2023/05/30 06:00:21;;;;;;;5.38;3.78;;;;;;;;;;5076051;28;20024;-63
2023/05/30 06:02:47;;;;;;;6.55;3.95;;;;;;;;;;5058365;28;20023;-63
2023/05/30 06:05:12;;;;;;;5.90;4.07;;;;;;;;;;5076674;28;20056;-63
2023/05/30 06:07:38;;;;;;;5.60;3.70;;;;;;;;;;5058379;28;20028;-63
2023/05/30 06:10:04;;;;;;;6.63;3.95;;;;;;;;;;5075594;28;20388;-63
2023/05/30 06:12:30;;;;;;;6.60;4.10;;;;;;;;;;5039479;28;20369;-63
2023/05/30 06:14:55;;;;;;;8.10;4.47;;;;;;;;;;5056230;28;20028;-63
2023/05/30 06:17:20;;;;;;;8.35;5.00;;;;;;;;;;5064446;28;20536;-63
2023/05/30 06:19:46;;;;;;;7.38;4.53;;;;;;;;;;5074944;28;20028;-63
2023/05/30 06:22:11;;;;;;;7.95;4.32;;;;;;;;;;5094472;28;20022;-63
2023/05/30 06:24:36;;;;;;;7.65;4.68;;;;;;;;;;5094952;28;20034;-68
2023/05/30 06:27:02;;;;;;;8.27;4.15;;;;;;;;;;5076478;28;20111;-69
2023/05/30 06:29:28;;;;;;;7.20;3.97;;;;;;;;;;5096781;28;20103;-68
2023/05/30 06:31:54;;;;;;;10.98;4.47;;;;;;;;;;5096112;28;20036;-68
2023/05/30 06:34:19;;;;;;;5.57;4.18;;;;;;;;;;5096124;28;20454;-68
2023/05/30 06:36:44;;;;;;;9.60;4.47;;;;;;;;;;5078470;28;20024;-68
2023/05/30 06:39:15;;;;;;;6.10;4.38;;;;;;;;;;5096026;28;20052;-68
2023/05/30 06:41:40;;;;;;;;;;;;;;;;;;5096734;28;20027;-68
2023/05/30 06:44:05;;;;;;;8.37;4.97;;;;;;;;;;5096215;28;20409;-68
2023/05/30 06:46:31;;;;;;;6.35;4.00;;;;;;;;;;5095676;28;20789;-68
2023/05/30 06:48:58;;;;;;;8.43;4.32;;;;;;;;;;5095821;28;20024;-68
2023/05/30 06:51:23;;;;;;;10.18;4.90;;;;;;;;;;5077958;28;20016;-68
2023/05/30 06:53:49;;;;;;;12.07;4.70;;;;;;;;;;5077658;28;20035;-68
2023/05/30 06:56:15;;;;;;;7.30;4.03;;;;;;;;;;5077574;28;20036;-68
2023/05/30 06:58:40;;;;;;;10.30;4.07;;;;;;;;;;5095671;28;20046;-68
2023/05/30 07:01:05;;;;;;;6.90;4.03;;;;;;;;;;5077487;28;20429;-68
2023/05/30 07:03:31;;;;;;;5.85;3.88;;;;;;;;;;5095854;28;20430;-68
2023/05/30 07:05:56;;;;;;;8.45;4.07;;;;;;;;;;5095489;28;20085;-68
2023/05/30 07:08:23;;;;;;;5.05;3.97;;;;;;;;;;5077281;28;20070;-68
2023/05/30 07:10:50;;;;;;;7.45;4.25;;;;;;;;;;5095666;28;20028;-68
2023/05/30 07:13:16;;;;;;;6.10;3.70;;;;;;;;;;5095658;28;20035;-68
2023/05/30 07:15:41;;;;;;;9.07;3.72;;;;;;;;;;5095305;28;20436;-68
2023/05/30 07:18:07;;;;;;;5.75;3.42;;;;;;;;;;5076837;28;20068;-68
2023/05/30 07:20:32;;;;;;;5.03;3.45;;;;;;;;;;5095199;28;20070;-68
2023/05/30 07:22:57;;;;;;;7.13;3.60;;;;;;;;;;5095170;28;20028;-69
2023/05/30 07:25:23;;;;;;;6.43;3.53;;;;;;;;;;5077023;28;20383;-69
2023/05/30 07:27:48;;;;;;;5.97;3.40;;;;;;;;;;5076925;28;20388;-69
2023/05/30 07:30:17;;;;;;;6.00;3.20;;;;;;;;;;5077525;28;20028;-69
2023/05/30 07:32:42;;;;;;;9.35;3.20;;;;;;;;;;5077143;28;20040;-68
2023/05/30 07:35:07;;;;;;;3.45;2.97;;;;;;;;;;5076819;28;20035;-68
2023/05/30 07:37:34;;;;;;;4.35;3.28;;;;;;;;;;5077112;28;20040;-68
2023/05/30 07:40:03;;;;;;;5.65;3.40;;;;;;;;;;5095111;28;20357;-68
2023/05/30 07:42:29;;;;;;;7.50;3.35;;;;;;;;;;5076581;28;20372;-68
2023/05/30 07:44:54;;;;;;;5.93;3.53;;;;;;;;;;5094763;28;20081;-68
2023/05/30 07:47:20;;;;;;;8.75;4.03;;;;;;;;;;5094968;28;20383;-68
2023/05/30 07:49:46;;;;;;;5.78;3.15;;;;;;;;;;5094972;28;20032;-68
2023/05/30 07:52:11;;;;;;;29.63;5.30;;;;;;;;;;5094511;28;20040;-68
2023/05/30 07:54:37;;;;;;;6.38;3.28;;;;;;;;;;5094843;28;20111;-68
2023/05/30 07:57:02;;;;;;;5.60;3.55;;;;;;;;;;5094529;28;20464;-68
2023/05/30 07:59:28;;;;;;;4.57;3.05;;;;;;;;;;5076121;28;20414;-68
2023/05/30 08:01:53;;;;;;;3.85;2.70;;;;;;;;;;5094745;28;20036;-68
2023/05/30 08:04:18;;;;;;;4.53;3.45;;;;;;;;;;5076332;28;20020;-68
2023/05/30 08:06:44;;;;;;;5.60;3.33;;;;;;;;;;5094941;28;20088;-68
2023/05/30 08:09:09;;;;;;;6.32;3.33;;;;;;;;;;5094593;28;20105;-68
2023/05/30 08:11:34;;;;;;;7.20;3.20;;;;;;;;;;5094188;28;20024;-68
2023/05/30 08:14:00;;;;;;;5.50;2.75;;;;;;;;;;5076403;28;20687;-68
2023/05/30 08:16:26;;;;;;;5.20;3.05;;;;;;;;;;5094264;28;20101;-68
2023/05/30 08:18:52;;;;;;;4.85;3.00;;;;;;;;;;5059300;28;20471;-68
2023/05/30 08:21:17;;;;;;;5.10;2.97;;;;;;;;;;5094167;28;20028;-68
2023/05/30 08:23:45;;;;;;;4.60;3.25;;;;;;;;;;5094089;28;20527;-68
2023/05/30 08:26:11;;;;;;;5.60;3.28;;;;;;;;;;5094565;28;20028;-68
2023/05/30 08:28:36;;;;;;;3.30;2.83;;;;;;;;;;5075873;28;20526;-68
2023/05/30 08:31:03;;;;;;;4.57;2.47;;;;;;;;;;5094449;28;20054;-68
2023/05/30 08:33:28;;;;;;;5.72;2.88;;;;;;;;;;5094229;28;20032;-68
2023/05/30 08:35:53;;;;;;;5.43;3.47;;;;;;;;;;5094196;28;20025;-68
2023/05/30 08:38:19;;;;;;;4.13;2.55;;;;;;;;;;5075809;28;20120;-68
2023/05/30 08:40:45;;;;;;;7.13;3.10;;;;;;;;;;5058977;28;20028;-68
2023/05/30 08:43:11;;;;;;;9.48;3.40;;;;;;;;;;5093844;28;20070;-68
2023/05/30 08:45:37;;;;;;;4.88;2.47;;;;;;;;;;5093759;28;20055;-68
2023/05/30 08:48:02;;;;;;;2.70;2.30;;;;;;;;;;5094351;28;20035;-68
2023/05/30 08:50:28;;;;;;;4.68;2.70;;;;;;;;;;5094048;28;20012;-68
2023/05/30 08:52:56;;;;;;;5.90;3.05;;;;;;;;;;5093709;28;20059;-68
2023/05/30 08:55:25;;;;;;;4.05;2.97;;;;;;;;;;5093972;28;20024;-68
2023/05/30 08:58:09;;;;;;;9.80;3.70;;;;;;;;;;5075925;28;20023;-68
2023/05/30 09:00:37;;;;;;;4.95;2.80;;;;;;;;;;5093876;28;20084;-69
2023/05/30 09:03:05;;;;;;;5.35;3.10;;;;;;;;;;5093836;28;20020;-69
2023/05/30 09:05:32;;;;;;;6.93;2.70;;;;;;;;;;5093855;28;20009;-69
2023/05/30 09:07:59;;;;;;;5.22;2.80;;;;;;;;;;5093585;28;20455;-69
2023/05/30 09:10:25;;;;;;;4.03;2.83;;;;;;;;;;5095322;28;20016;-69
2023/05/30 09:12:50;;;;;;;6.13;3.28;;;;;;;;;;5097935;28;20028;-69
2023/05/30 09:15:16;;;;;;;4.57;2.67;;;;;;;;;;5097943;28;20024;-68
2023/05/30 09:17:41;;;;;;;6.07;3.17;;;;;;;;;;5097533;28;20128;-68
2023/05/30 09:20:08;;;;;;;7.90;3.10;;;;;;;;;;5097854;28;20031;-68
2023/05/30 09:22:33;;;;;;;7.47;3.25;;;;;;;;;;5079289;28;20024;-68
2023/05/30 09:25:03;;;;;;;8.05;2.70;;;;;;;;;;5079694;28;20081;-68
2023/05/30 09:27:30;;;;;;;5.97;2.80;;;;;;;;;;5097708;28;20120;-69
2023/05/30 09:29:56;;;;;;;2.88;2.20;;;;;;;;;;5097660;28;20134;-69
2023/05/30 09:32:26;;;;;;;7.90;2.67;;;;;;;;;;5097512;28;20032;-69
2023/05/30 09:34:52;;;;;;;4.53;2.60;;;;;;;;;;5097822;28;20040;-69
2023/05/30 09:37:19;;;;;;;3.15;2.15;;;;;;;;;;5079134;28;20024;-69
2023/05/30 09:40:06;;;;;;;3.30;2.25;;;;;;;;;;5097446;28;20036;-69
2023/05/30 09:42:41;;;;;;;4.45;2.65;;;;;;;;;;5097086;28;20039;-69
2023/05/30 09:45:11;;;;;;;2.83;2.40;;;;;;;;;;5097356;28;20031;-69
2023/05/30 09:47:37;;;;;;;3.13;2.75;;;;;;;;;;5078988;28;20036;-68
2023/05/30 09:50:03;;;;;;;4.88;2.65;;;;;;;;;;5097212;28;20055;-68
2023/05/30 09:52:29;;;;;;;6.43;2.90;;;;;;;;;;5062153;28;20063;-68
2023/05/30 09:54:55;;;;;;;3.22;2.47;;;;;;;;;;5079127;28;20012;-69
2023/05/30 09:57:20;;;;;;;4.93;2.80;;;;;;;;;;5096864;28;20039;-68
2023/05/30 09:59:48;;;;;;;3.50;2.35;;;;;;;;;;5078587;28;20020;-68
2023/05/30 10:02:20;;;;;;;4.82;3.05;;;;;;;;;;5097297;28;20036;-68
2023/05/30 10:04:47;;;;;;;5.78;3.00;;;;;;;;;;5096980;28;20027;-68
2023/05/30 10:07:14;;;;;;;5.15;2.70;;;;;;;;;;5078656;28;20040;-68
2023/05/30 10:09:40;;;;;;;3.67;2.70;;;;;;;;;;5096625;28;20032;-68
2023/05/30 10:12:06;;;;;;;4.00;2.75;;;;;;;;;;5078373;28;20043;-68
2023/05/30 10:14:31;;;;;;;3.47;2.25;;;;;;;;;;5096806;28;20024;-68
2023/05/30 10:17:05;;;;;;;3.70;2.50;;;;;;;;;;5123167;22;20060;-67
2023/05/30 10:19:40;;;;;;;4.30;2.63;;;;;;;;;;5067620;22;20080;-65
2023/05/30 10:22:06;;;;;;;3.45;2.63;;;;;;;;;;5068677;28;20028;-63
2023/05/30 10:24:33;;;;;;;3.63;2.90;;;;;;;;;;5058205;28;20098;-65
2023/05/30 10:27:01;;;;;;;2.53;2.33;;;;;;;;;;5076018;28;20464;-65
2023/05/30 10:29:30;;;;;;;3.30;2.65;;;;;;;;;;5058472;28;20032;-65
2023/05/30 10:31:56;;;;;;;5.63;2.33;;;;;;;;;;5075865;28;20028;-63
2023/05/30 10:34:26;;;;;;;3.47;2.67;;;;;;;;;;5075883;28;20036;-63
2023/05/30 10:36:53;;;;;;;4.88;2.67;;;;;;;;;;5057395;28;20035;-64
2023/05/30 10:39:30;;;;;;;3.20;2.33;;;;;;;;;;5058064;28;20044;-65
2023/05/30 10:42:07;;;;;;;2.70;2.50;;;;;;;;;;5075746;28;20039;-63
2023/05/30 10:44:32;;;;;;;4.15;2.60;;;;;;;;;;5041104;28;20128;-63
2023/05/30 10:47:19;;;;;;;2.90;2.40;;;;;;;;;;5075975;28;20098;-63
2023/05/30 10:49:44;;;;;;;6.38;3.20;;;;;;;;;;5075640;28;20032;-63
2023/05/30 10:52:10;;;;;;;2.97;1.95;;;;;;;;;;5075803;28;20099;-63
2023/05/30 10:54:36;;;;;;;5.70;2.30;;;;;;;;;;5075485;28;20020;-63
2023/05/30 10:57:13;;;;;;;3.08;2.15;;;;;;;;;;5075748;28;20442;-63
2023/05/30 10:59:39;;;;;;;3.13;2.72;;;;;;;;;;5057419;28;20376;-63
2023/05/30 11:02:05;;;;;;;5.90;2.80;;;;;;;;;;5075348;28;20036;-63
2023/05/30 11:04:42;;;;;;;4.85;2.70;;;;;;;;;;5075577;28;20017;-63
2023/05/30 11:07:09;;;;;;;2.83;2.63;;;;;;;;;;5057751;28;20416;-63
2023/05/30 11:09:38;;;;;;;2.58;2.30;;;;;;;;;;5075462;28;20384;-63
2023/05/30 11:12:06;;;;;;;3.15;2.70;;;;;;;;;;5057240;28;20044;-63
2023/05/30 11:14:33;;;;;;;3.53;2.50;;;;;;;;;;5075385;28;20032;-63
2023/05/30 11:17:08;;;;;;;3.38;2.60;;;;;;;;;;5075340;28;20464;-63
2023/05/30 11:19:38;;;;;;;3.83;2.63;;;;;;;;;;5074820;28;20037;-63
2023/05/30 11:22:12;;;;;;;3.43;2.80;;;;;;;;;;5075013;28;20021;-63
2023/05/30 11:24:38;;;;;;;6.03;3.10;;;;;;;;;;5037856;28;20766;-63
2023/05/30 11:27:05;;;;;;;2.45;2.25;;;;;;;;;;5074836;28;20036;-63
2023/05/30 11:29:36;;;;;;;5.28;2.67;;;;;;;;;;5075084;28;20086;-63
2023/05/30 11:32:03;;;;;;;2.40;2.00;;;;;;;;;;5074963;28;20040;-63
2023/05/30 11:34:29;;;;;;;4.25;2.58;;;;;;;;;;5055861;28;20472;-63
2023/05/30 11:36:55;;;;;;;4.88;2.67;;;;;;;;;;5056826;28;20052;-63
2023/05/30 11:39:21;;;;;;;4.43;2.70;;;;;;;;;;5074900;28;20085;-63
2023/05/30 11:41:46;;;;;;;3.95;2.58;;;;;;;;;;5074810;28;20028;-63
2023/05/30 11:44:13;;;;;;;4.07;2.70;;;;;;;;;;5074513;28;20119;-63
2023/05/30 11:46:39;;;;;;;2.80;2.40;;;;;;;;;;5074538;28;20028;-63
2023/05/30 11:49:04;;;;;;;3.33;2.63;;;;;;;;;;5074273;28;20123;-63
2023/05/30 11:51:30;;;;;;;3.33;2.58;;;;;;;;;;5056432;28;20040;-63
2023/05/30 11:53:56;;;;;;;5.32;2.85;;;;;;;;;;5048198;28;20389;-63
2023/05/30 11:56:23;;;;;;;2.72;2.53;;;;;;;;;;5056394;28;20082;-63
2023/05/30 11:58:49;;;;;;;3.08;2.47;;;;;;;;;;5074295;28;20421;-63
2023/05/30 12:01:15;;;;;;;4.82;2.83;;;;;;;;;;5056282;28;20032;-63
2023/05/30 12:03:43;;;;;;;3.13;2.83;;;;;;;;;;5074193;28;20020;-63
2023/05/30 12:06:12;;;;;;;5.28;3.00;;;;;;;;;;5074096;28;20063;-63
2023/05/30 12:08:41;;;;;;;7.68;2.90;;;;;;;;;;5074616;28;20124;-63
2023/05/30 12:11:06;;;;;;;2.83;2.50;;;;;;;;;;5074226;28;20028;-67
2023/05/30 12:13:32;;;;;;;2.80;2.60;;;;;;;;;;5056180;28;20392;-67
2023/05/30 12:15:57;;;;;;;3.38;2.50;;;;;;;;;;5073956;28;20024;-68
2023/05/30 12:18:23;;;;;;;2.60;2.40;;;;;;;;;;5056230;28;20024;-68
2023/05/30 12:20:48;;;;;;;6.45;3.10;;;;;;;;;;5073950;28;20119;-68
2023/05/30 12:23:13;;;;;;;4.00;2.28;;;;;;;;;;5073907;28;20031;-67
2023/05/30 12:25:39;;;;;;;3.63;2.90;;;;;;;;;;5073848;28;20024;-68
2023/05/30 12:28:05;;;;;;;4.30;2.53;;;;;;;;;;5074084;28;20097;-68
2023/05/30 12:30:34;;;;;;;4.60;2.60;;;;;;;;;;5073783;28;20483;-69
2023/05/30 12:33:13;;;;;;;6.50;3.00;;;;;;;;;;5073734;28;20032;-67
2023/05/30 12:35:39;;;;;;;4.85;2.75;;;;;;;;;;5039105;28;20036;-69
2023/05/30 12:38:05;;;;;;;5.63;2.40;;;;;;;;;;5073976;28;20024;-69
2023/05/30 12:40:31;;;;;;;3.70;3.00;;;;;;;;;;5055742;28;20052;-68
2023/05/30 12:42:57;;;;;;;4.35;2.60;;;;;;;;;;5073619;28;20028;-68
2023/05/30 12:45:22;;;;;;;4.60;2.38;;;;;;;;;;5073611;28;20086;-67
2023/05/30 12:47:47;;;;;;;3.80;2.03;;;;;;;;;;5073574;28;20024;-67
2023/05/30 12:50:13;;;;;;;5.22;2.13;;;;;;;;;;5073808;28;20383;-67
2023/05/30 12:52:38;;;;;;;2.75;2.17;;;;;;;;;;5055684;28;20107;-67
2023/05/30 12:55:05;;;;;;;2.75;2.30;;;;;;;;;;5073791;28;20456;-68
2023/05/30 12:57:31;;;;;;;2.78;2.58;;;;;;;;;;5073807;28;20453;-67
2023/05/30 12:59:56;;;;;;;5.03;3.50;;;;;;;;;;5073452;28;20060;-67
2023/05/30 13:02:24;;;;;;;3.85;2.80;;;;;;;;;;5073436;28;20174;-68
2023/05/30 13:04:50;;;;;;;3.30;2.70;;;;;;;;;;5055392;28;20448;-67
2023/05/30 13:07:16;;;;;;;5.40;3.15;;;;;;;;;;5055536;28;20090;-67
2023/05/30 13:09:41;;;;;;;2.60;2.30;;;;;;;;;;5073373;28;20066;-67
2023/05/30 13:12:10;;;;;;;3.88;2.30;;;;;;;;;;5073535;28;20083;-67
2023/05/30 13:14:36;;;;;;;2.72;2.22;;;;;;;;;;5073562;28;20063;-67
2023/05/30 13:17:03;;;;;;;2.53;2.33;;;;;;;;;;5055330;28;20028;-67
2023/05/30 13:19:28;;;;;;;4.60;2.50;;;;;;;;;;5073145;28;20393;-67
2023/05/30 13:21:53;;;;;;;2.60;2.40;;;;;;;;;;5073234;28;20066;-67
2023/05/30 13:24:19;;;;;;;2.67;2.40;;;;;;;;;;5073206;28;20024;-67
2023/05/30 13:26:44;;;;;;;3.40;2.15;;;;;;;;;;5073193;28;20384;-67
2023/05/30 13:29:09;;;;;;;2.30;2.05;;;;;;;;;;5055264;28;20530;-67
2023/05/30 13:31:36;;;;;;;4.45;2.47;;;;;;;;;;5071691;28;20459;-67
2023/05/30 13:34:01;;;;;;;4.43;2.60;;;;;;;;;;5055350;28;20016;-67
2023/05/30 13:36:32;;;;;;;4.38;2.58;;;;;;;;;;5072617;28;20368;-68
2023/05/30 13:38:58;;;;;;;4.13;2.30;;;;;;;;;;5068469;28;20396;-67
2023/05/30 13:41:23;;;;;;;2.80;2.00;;;;;;;;;;5070123;28;20024;-67
2023/05/30 13:43:49;;;;;;;5.93;2.45;;;;;;;;;;5054122;28;20024;-67
2023/05/30 13:46:15;;;;;;;3.00;2.28;;;;;;;;;;5065792;28;20503;-67
2023/05/30 13:48:40;;;;;;;2.72;1.90;;;;;;;;;;5062017;28;20445;-67
2023/05/30 13:51:06;;;;;;;2.42;2.08;;;;;;;;;;5072119;28;20036;-63
2023/05/30 13:53:31;;;;;;;3.75;2.60;;;;;;;;;;5071859;28;20040;-63
2023/05/30 13:55:57;;;;;;;5.70;2.33;;;;;;;;;;5072210;28;20035;-63
2023/05/30 13:58:22;;;;;;;4.38;2.75;;;;;;;;;;5069993;28;20020;-63
2023/05/30 14:00:48;;;;;;;4.93;2.53;;;;;;;;;;5068368;28;20143;-63
2023/05/30 14:03:13;;;;;;;5.85;2.80;;;;;;;;;;5069283;28;20017;-63
2023/05/30 14:05:47;;;;;;;2.90;2.60;;;;;;;;;;5076401;28;20468;-67
2023/05/30 14:08:12;;;;;;;2.97;2.25;;;;;;;;;;5076196;28;20103;-67
2023/05/30 14:10:39;;;;;;;2.25;1.98;;;;;;;;;;5071538;28;20132;-67
2023/05/30 14:13:05;;;;;;;2.85;2.50;;;;;;;;;;5069076;28;20037;-67
2023/05/30 14:15:32;;;;;;;4.63;2.20;;;;;;;;;;5068067;28;20063;-67
2023/05/30 14:17:58;;;;;;;2.97;2.55;;;;;;;;;;5075870;28;20021;-68
2023/05/30 14:20:24;;;;;;;5.63;3.03;;;;;;;;;;5075696;28;20110;-68
2023/05/30 14:22:49;;;;;;;3.45;2.22;;;;;;;;;;5057285;28;20067;-68
2023/05/30 14:25:15;;;;;;;3.67;2.80;;;;;;;;;;5075394;28;20460;-68
2023/05/30 14:27:42;;;;;;;3.25;2.50;;;;;;;;;;5074717;28;20032;-68
2023/05/30 14:30:12;;;;;;;3.60;2.22;;;;;;;;;;5067405;28;20094;-64
2023/05/30 14:32:38;;;;;;;3.38;2.20;;;;;;;;;;5075564;28;20067;-64
2023/05/30 14:35:04;;;;;;;4.20;2.70;;;;;;;;;;5057913;28;20056;-64
2023/05/30 14:37:29;;;;;;;3.85;2.33;;;;;;;;;;5075891;28;20023;-64
2023/05/30 14:39:54;;;;;;;4.85;2.42;;;;;;;;;;5075543;28;20028;-64